Time;durP1;ratioP1;P1;durP2;ratioP2;P2;SDS_P1;SDS_P2;PMS_P1;PMS_P2;Temp;Humidity;BMP_temperature;BMP_pressure;BME280_temperature;BME280_humidity;BME280_pressure;Samples;Min_cycle;Max_cycle;Signal;HPM_P1;HPM_P2
2022/07/19 00:00:29;;;;;;;3.90;3.43;;;19.70;99.90;;;;;;4999696;28;20443;-48
2022/07/19 00:02:56;;;;;;;4.03;2.93;;;19.80;99.90;;;;;;4998673;28;20458;-51
2022/07/19 00:05:23;;;;;;;6.97;2.70;;;19.80;99.90;;;;;;4999574;28;20741;-54
2022/07/19 00:07:50;;;;;;;5.80;2.43;;;19.70;99.90;;;;;;4999933;28;20616;-51
2022/07/19 00:10:19;;;;;;;6.63;2.70;;;19.70;99.90;;;;;;4999836;28;20536;-48
2022/07/19 00:12:47;;;;;;;7.10;2.97;;;19.60;99.90;;;;;;4999747;28;20487;-49
2022/07/19 00:15:16;;;;;;;6.23;2.60;;;19.50;99.90;;;;;;4999610;28;20714;-51
2022/07/19 00:17:46;;;;;;;5.93;2.80;;;19.40;99.90;;;;;;4982761;28;20590;-51
2022/07/19 00:20:15;;;;;;;3.83;2.77;;;19.20;99.90;;;;;;4999396;28;20410;-53
2022/07/19 00:22:43;;;;;;;3.03;2.57;;;19.10;99.90;;;;;;4999722;28;20416;-55
2022/07/19 00:25:11;;;;;;;3.90;2.60;;;19.10;99.90;;;;;;4999441;28;20516;-51
2022/07/19 00:27:40;;;;;;;4.00;3.60;;;19.00;99.90;;;;;;4999592;28;20458;-52
2022/07/19 00:30:08;;;;;;;5.13;3.10;;;18.90;99.90;;;;;;4999894;28;20641;-51
2022/07/19 00:32:35;;;;;;;4.23;3.27;;;18.80;99.90;;;;;;4999610;28;20439;-50
2022/07/19 00:35:03;;;;;;;4.80;2.73;;;18.80;99.90;;;;;;4999376;28;20485;-51
2022/07/19 00:37:30;;;;;;;3.67;3.37;;;18.70;99.90;;;;;;5000005;28;20409;-52
2022/07/19 00:39:58;;;;;;;6.67;2.37;;;18.60;99.90;;;;;;4999921;28;20495;-52
2022/07/19 00:42:25;;;;;;;4.50;2.97;;;18.60;99.90;;;;;;4999953;28;20409;-49
2022/07/19 00:44:53;;;;;;;5.10;2.97;;;18.50;99.90;;;;;;5000167;28;20455;-50
2022/07/19 00:47:21;;;;;;;2.83;2.60;;;18.50;99.90;;;;;;4999762;28;20428;-50
2022/07/19 00:49:48;;;;;;;3.73;3.20;;;18.40;99.90;;;;;;4999749;28;20456;-47
2022/07/19 00:52:18;;;;;;;2.73;2.53;;;18.40;99.90;;;;;;4999518;28;20470;-49
2022/07/19 00:54:46;;;;;;;4.17;3.10;;;18.30;99.90;;;;;;4998951;28;20468;-52
2022/07/19 00:57:15;;;;;;;3.70;2.90;;;18.10;99.90;;;;;;4999445;28;20441;-48
2022/07/19 00:59:46;;;;;;;3.50;2.63;;;18.10;99.90;;;;;;5014264;28;20438;-52
2022/07/19 01:02:15;;;;;;;6.23;3.37;;;18.20;99.90;;;;;;5004680;28;20426;-50
2022/07/19 01:04:42;;;;;;;3.70;3.30;;;18.20;99.90;;;;;;4999396;28;20462;-52
2022/07/19 01:07:09;;;;;;;6.70;2.50;;;18.10;99.90;;;;;;4999241;28;20782;-53
2022/07/19 01:09:41;;;;;;;4.20;2.97;;;17.70;99.90;;;;;;5002726;28;20417;-52
2022/07/19 01:12:09;;;;;;;6.23;4.83;;;17.70;99.90;;;;;;5003095;28;20435;-54
2022/07/19 01:14:36;;;;;;;4.70;3.10;;;17.80;99.90;;;;;;5002576;28;20504;-52
2022/07/19 01:17:04;;;;;;;3.40;3.10;;;17.90;99.90;;;;;;5002714;28;20431;-53
2022/07/19 01:19:32;;;;;;;4.23;3.13;;;17.90;99.90;;;;;;5002469;28;20450;-49
2022/07/19 01:21:59;;;;;;;5.10;2.77;;;17.90;99.90;;;;;;5002748;28;20825;-55
2022/07/19 01:24:27;;;;;;;6.47;3.00;;;17.90;99.90;;;;;;5002477;28;20455;-52
2022/07/19 01:26:54;;;;;;;4.83;3.00;;;17.80;99.90;;;;;;5002506;28;20631;-52
2022/07/19 01:29:22;;;;;;;3.90;2.90;;;17.80;99.90;;;;;;5002707;28;20429;-49
2022/07/19 01:31:49;;;;;;;4.90;3.17;;;17.70;99.90;;;;;;5002221;28;20432;-52
2022/07/19 01:34:16;;;;;;;5.27;3.30;;;17.80;99.90;;;;;;5002674;28;20488;-52
2022/07/19 01:36:44;;;;;;;3.53;3.23;;;17.70;99.90;;;;;;5002366;28;20443;-54
2022/07/19 01:39:11;;;;;;;5.33;2.90;;;17.70;99.90;;;;;;5002893;28;20417;-47
2022/07/19 01:41:38;;;;;;;2.93;2.63;;;17.60;99.90;;;;;;5002136;28;20431;-53
2022/07/19 01:44:05;;;;;;;4.30;3.10;;;17.60;99.90;;;;;;5002438;28;20462;-53
2022/07/19 01:46:33;;;;;;;4.73;2.43;;;17.60;99.90;;;;;;5001616;28;20410;-51
2022/07/19 01:49:01;;;;;;;9.70;4.00;;;17.60;99.90;;;;;;5002593;28;20458;-51
2022/07/19 01:51:28;;;;;;;6.83;3.17;;;17.60;99.90;;;;;;5001958;28;20434;-50
2022/07/19 01:53:55;;;;;;;3.63;2.60;;;17.60;99.90;;;;;;5001838;28;20463;-51
2022/07/19 01:56:22;;;;;;;4.70;3.10;;;17.50;99.90;;;;;;5001942;28;20824;-50
2022/07/19 01:58:49;;;;;;;4.00;3.03;;;17.50;99.90;;;;;;5002018;28;20439;-50
2022/07/19 02:01:17;;;;;;;5.70;3.37;;;17.50;99.90;;;;;;5001907;28;20443;-50
2022/07/19 02:03:44;;;;;;;3.37;2.87;;;17.50;99.90;;;;;;5001765;28;20473;-49
2022/07/19 02:06:11;;;;;;;3.90;3.13;;;17.40;99.90;;;;;;5002410;28;20611;-49
2022/07/19 02:08:40;;;;;;;5.23;3.27;;;17.40;99.90;;;;;;5001377;28;20635;-54
2022/07/19 02:13:54;;;;;;;3.90;3.03;;;17.40;99.90;;;;;;4994941;28;20452;-51
2022/07/19 02:16:21;;;;;;;3.07;2.77;;;17.50;99.90;;;;;;5001589;28;20484;-49
2022/07/19 02:18:48;;;;;;;4.03;3.67;;;17.50;99.90;;;;;;5001072;28;20456;-51
2022/07/19 02:21:16;;;;;;;5.10;2.70;;;17.50;99.90;;;;;;5001302;28;20519;-47
2022/07/19 02:23:43;;;;;;;4.27;2.97;;;17.60;99.90;;;;;;5001458;28;20440;-50
2022/07/19 02:26:10;;;;;;;8.80;3.30;;;17.60;99.90;;;;;;5001564;28;20431;-47
2022/07/19 02:28:38;;;;;;;3.20;2.90;;;17.60;99.90;;;;;;5001635;28;20461;-50
2022/07/19 02:31:05;;;;;;;6.53;3.37;;;17.80;99.90;;;;;;4984947;28;20427;-51
2022/07/19 02:33:32;;;;;;;5.70;3.53;;;17.90;99.90;;;;;;5001608;28;20527;-50
2022/07/19 02:36:00;;;;;;;3.30;2.60;;;18.00;99.90;;;;;;5001870;28;20596;-49
2022/07/19 02:38:27;;;;;;;3.37;2.93;;;18.10;99.90;;;;;;5001752;28;20507;-54
2022/07/19 02:40:54;;;;;;;5.37;3.40;;;18.20;99.90;;;;;;5001351;28;20447;-51
2022/07/19 02:43:21;;;;;;;6.40;3.27;;;18.30;99.90;;;;;;5001164;28;20447;-50
2022/07/19 02:45:48;;;;;;;4.27;2.97;;;18.30;99.90;;;;;;5001566;28;20458;-52
2022/07/19 02:48:16;;;;;;;7.07;3.50;;;18.30;99.90;;;;;;5001045;28;20447;-53
2022/07/19 02:50:44;;;;;;;5.70;2.63;;;18.40;99.90;;;;;;5000941;28;20649;-52
2022/07/19 02:53:11;;;;;;;6.90;3.13;;;18.40;99.90;;;;;;5001229;28;20674;-48
2022/07/19 02:55:38;;;;;;;8.30;3.60;;;18.40;99.90;;;;;;5000735;28;20479;-51
2022/07/19 02:58:06;;;;;;;5.47;2.80;;;18.50;99.90;;;;;;5001123;28;20766;-51
2022/07/19 03:00:33;;;;;;;5.63;2.50;;;18.50;99.90;;;;;;5000301;28;20436;-50
2022/07/19 03:05:52;;;;;;;4.70;2.83;;;18.70;99.90;;;;;;5000123;28;20439;-50
2022/07/19 03:08:20;;;;;;;3.77;3.30;;;18.70;99.90;;;;;;5000460;28;20435;-50
2022/07/19 03:10:47;;;;;;;5.60;3.60;;;18.70;99.90;;;;;;4998884;28;20502;-51
2022/07/19 03:13:14;;;;;;;4.60;3.07;;;18.70;99.90;;;;;;5000447;28;20448;-49
2022/07/19 03:15:42;;;;;;;4.50;2.60;;;18.70;99.90;;;;;;5000357;28;20543;-52
2022/07/19 03:18:09;;;;;;;7.53;3.70;;;18.60;99.90;;;;;;5000878;28;20735;-51
2022/07/19 03:20:37;;;;;;;7.03;3.43;;;18.60;99.90;;;;;;5000882;28;20515;-51
2022/07/19 03:23:04;;;;;;;8.23;2.37;;;18.60;99.90;;;;;;5001225;28;20434;-51
2022/07/19 03:25:31;;;;;;;2.40;2.20;;;18.70;99.90;;;;;;5000940;28;20418;-48
2022/07/19 03:27:58;;;;;;;3.10;2.80;;;18.70;99.90;;;;;;5000445;28;20481;-50
2022/07/19 03:30:26;;;;;;;3.30;3.00;;;18.70;99.90;;;;;;5000375;28;20506;-49
2022/07/19 03:32:53;;;;;;;5.70;3.23;;;18.60;99.90;;;;;;5000372;28;20421;-48
2022/07/19 03:35:21;;;;;;;5.60;2.90;;;18.60;99.90;;;;;;5000878;28;20441;-51
2022/07/19 03:37:48;;;;;;;5.47;3.60;;;18.60;99.90;;;;;;5000759;28;20754;-53
2022/07/19 03:40:15;;;;;;;3.20;2.80;;;18.60;99.90;;;;;;5000648;28;20430;-54
2022/07/19 03:42:42;;;;;;;2.90;2.70;;;18.60;99.90;;;;;;5000102;28;20490;-50
2022/07/19 03:45:10;;;;;;;5.80;3.13;;;18.80;99.90;;;;;;5000246;28;20450;-49
2022/07/19 03:47:37;;;;;;;4.57;3.03;;;18.80;99.90;;;;;;4999814;28;20474;-47
2022/07/19 03:50:05;;;;;;;2.97;2.77;;;18.90;99.90;;;;;;5000298;28;20504;-48
2022/07/19 03:52:33;;;;;;;3.33;3.03;;;19.20;99.90;;;;;;4999658;28;20414;-50
2022/07/19 03:55:00;;;;;;;6.13;4.17;;;19.40;99.90;;;;;;5000051;28;20503;-49
2022/07/19 03:57:27;;;;;;;6.30;3.40;;;19.50;99.90;;;;;;4999789;28;20782;-49
2022/07/19 03:59:54;;;;;;;7.70;3.97;;;19.60;99.90;;;;;;5000426;28;20427;-47
2022/07/19 04:02:22;;;;;;;4.40;3.00;;;19.60;99.90;;;;;;4999731;28;20449;-50
2022/07/19 04:04:49;;;;;;;3.60;3.30;;;19.80;99.90;;;;;;5000149;28;20462;-50
2022/07/19 04:07:17;;;;;;;5.10;2.93;;;19.90;99.90;;;;;;4999772;28;20444;-48
2022/07/19 04:09:44;;;;;;;8.17;4.10;;;20.00;99.90;;;;;;4999964;28;20446;-48
2022/07/19 04:12:11;;;;;;;4.50;3.40;;;20.00;99.90;;;;;;5000470;28;20442;-46
2022/07/19 04:14:39;;;;;;;5.50;3.07;;;20.10;99.90;;;;;;4999747;28;20434;-47
2022/07/19 04:17:06;;;;;;;7.23;3.00;;;20.00;99.90;;;;;;5000179;28;20611;-47
2022/07/19 04:19:35;;;;;;;5.83;3.20;;;20.30;99.90;;;;;;4999645;28;20425;-47
2022/07/19 04:22:02;;;;;;;3.47;3.17;;;20.40;99.90;;;;;;5000188;28;20956;-46
2022/07/19 04:24:29;;;;;;;4.10;3.70;;;20.20;99.90;;;;;;4999446;28;20473;-51
2022/07/19 04:26:57;;;;;;;4.53;3.00;;;20.50;99.90;;;;;;4999918;28;20861;-52
2022/07/19 04:29:24;;;;;;;8.17;4.40;;;20.50;99.90;;;;;;4999380;28;20436;-53
2022/07/19 04:31:51;;;;;;;5.13;4.63;;;20.60;99.90;;;;;;4999595;28;20637;-51
2022/07/19 04:34:19;;;;;;;6.47;4.20;;;20.60;99.90;;;;;;4999464;28;20419;-52
2022/07/19 04:36:46;;;;;;;4.97;3.27;;;20.30;99.90;;;;;;4999860;28;20446;-50
2022/07/19 04:39:13;;;;;;;3.93;3.33;;;20.30;99.90;;;;;;4999466;28;20407;-49
2022/07/19 04:41:41;;;;;;;6.23;4.37;;;20.30;99.90;;;;;;4999618;28;20442;-52
2022/07/19 04:44:08;;;;;;;5.27;3.33;;;20.20;99.90;;;;;;5002664;28;20429;-52
2022/07/19 04:46:36;;;;;;;7.17;3.40;;;20.20;99.90;;;;;;5003082;28;20802;-53
2022/07/19 04:49:04;;;;;;;12.60;4.10;;;20.10;99.90;;;;;;5003285;28;20437;-51
2022/07/19 04:51:31;;;;;;;4.27;3.87;;;20.00;99.90;;;;;;5003401;28;20469;-51
2022/07/19 04:53:59;;;;;;;7.00;4.80;;;19.90;99.90;;;;;;5003125;28;20755;-49
2022/07/19 04:56:26;;;;;;;8.97;4.07;;;20.10;99.90;;;;;;5002472;28;20449;-50
2022/07/19 04:58:54;;;;;;;3.70;3.40;;;20.30;99.90;;;;;;5003193;28;20463;-50
2022/07/19 05:01:21;;;;;;;4.23;3.40;;;20.40;99.90;;;;;;5002968;28;20412;-52
2022/07/19 05:03:49;;;;;;;4.57;4.17;;;20.60;99.90;;;;;;5002978;28;20454;-48
2022/07/19 05:06:16;;;;;;;6.03;3.10;;;20.90;99.90;;;;;;5002935;28;20745;-49
2022/07/19 05:08:43;;;;;;;4.30;2.63;;;21.20;99.90;;;;;;5013329;28;20646;-51
2022/07/19 05:11:10;;;;;;;6.93;3.80;;;21.20;99.90;;;;;;5008672;28;20414;-49
2022/07/19 05:13:38;;;;;;;3.70;2.90;;;21.30;99.90;;;;;;5010421;28;20458;-51
2022/07/19 05:16:06;;;;;;;7.53;3.30;;;21.30;99.90;;;;;;5002848;28;20467;-47
2022/07/19 05:18:33;;;;;;;5.30;4.67;;;21.30;99.90;;;;;;5002681;28;20796;-51
2022/07/19 05:21:00;;;;;;;4.13;3.60;;;21.40;99.90;;;;;;5002826;28;20434;-54
2022/07/19 05:23:28;;;;;;;5.07;3.37;;;21.70;99.90;;;;;;5000193;28;20437;-49
2022/07/19 05:25:55;;;;;;;2.87;2.60;;;21.70;99.90;;;;;;5002748;28;20455;-50
2022/07/19 05:28:22;;;;;;;18.77;11.50;;;21.80;99.90;;;;;;5002101;28;20431;-49
2022/07/19 05:30:49;;;;;;;11.27;9.47;;;21.80;99.90;;;;;;5002864;28;20807;-49
2022/07/19 05:33:17;;;;;;;3.17;2.67;;;21.90;99.90;;;;;;5002399;28;20458;-52
2022/07/19 05:35:44;;;;;;;4.43;4.03;;;22.10;99.90;;;;;;5002518;28;20511;-48
2022/07/19 05:38:12;;;;;;;4.47;2.07;;;22.30;99.90;;;;;;5002233;28;20434;-49
2022/07/19 05:40:39;;;;;;;2.93;2.57;;;22.40;99.90;;;;;;5001678;28;20471;-50
2022/07/19 05:43:06;;;;;;;3.43;3.10;;;22.40;99.90;;;;;;5002336;28;20792;-50
2022/07/19 05:45:34;;;;;;;2.30;2.03;;;22.70;99.90;;;;;;5000443;28;20435;-54
2022/07/19 05:48:01;;;;;;;3.00;2.70;;;22.90;99.90;;;;;;5002461;28;20446;-50
2022/07/19 05:50:28;;;;;;;6.33;3.17;;;22.90;99.90;;;;;;5002330;28;20442;-49
2022/07/19 05:52:55;;;;;;;4.70;2.67;;;23.10;99.90;;;;;;5001696;28;20653;-50
2022/07/19 05:55:23;;;;;;;3.37;2.47;;;23.30;99.90;;;;;;5002208;28;20526;-48
2022/07/19 05:57:50;;;;;;;4.03;3.10;;;23.60;99.90;;;;;;5002735;28;20410;-49
2022/07/19 06:00:18;;;;;;;5.70;3.43;;;23.80;99.90;;;;;;5001997;28;20585;-48
2022/07/19 06:02:45;;;;;;;3.27;2.30;;;23.90;99.90;;;;;;5002143;28;20482;-48
2022/07/19 06:05:12;;;;;;;3.10;2.13;;;23.90;99.90;;;;;;5001856;28;20594;-52
2022/07/19 06:07:39;;;;;;;3.00;2.70;;;24.10;99.90;;;;;;5002084;28;20413;-48
2022/07/19 06:10:07;;;;;;;3.10;2.60;;;24.20;99.90;;;;;;5001575;28;20430;-46
2022/07/19 06:12:34;;;;;;;8.30;3.67;;;24.40;99.90;;;;;;5001954;28;20773;-49
2022/07/19 06:15:01;;;;;;;6.93;3.03;;;24.70;99.90;;;;;;5001443;28;20451;-49
2022/07/19 06:17:29;;;;;;;5.63;2.90;;;24.90;99.90;;;;;;4984649;28;20440;-47
2022/07/19 06:19:56;;;;;;;4.63;2.80;;;25.20;99.90;;;;;;5001855;28;20434;-50
2022/07/19 06:22:24;;;;;;;4.13;2.67;;;25.60;99.90;;;;;;5001716;28;20717;-48
2022/07/19 06:24:51;;;;;;;3.23;2.60;;;26.00;99.90;;;;;;5001648;28;20501;-51
2022/07/19 06:27:19;;;;;;;5.60;2.53;;;26.70;99.90;;;;;;5001441;28;20437;-51
2022/07/19 06:29:46;;;;;;;4.70;2.90;;;27.40;99.90;;;;;;4997729;28;20437;-47
2022/07/19 06:32:13;;;;;;;2.40;2.20;;;27.80;99.90;;;;;;5001579;28;20434;-53
2022/07/19 06:34:40;;;;;;;2.60;2.40;;;28.30;99.90;;;;;;5001666;28;20470;-50
2022/07/19 06:37:07;;;;;;;2.53;2.30;;;28.60;99.90;;;;;;4993738;28;20717;-49
2022/07/19 06:39:34;;;;;;;2.67;2.20;;;28.80;99.90;;;;;;4999591;28;20605;-48
2022/07/19 06:42:02;;;;;;;2.93;2.13;;;29.30;99.90;;;;;;5000287;28;20471;-48
2022/07/19 06:44:29;;;;;;;3.70;2.70;;;29.50;99.60;;;;;;5000745;28;20464;-49
2022/07/19 06:46:56;;;;;;;5.23;2.20;;;29.60;99.20;;;;;;5000691;28;20456;-52
2022/07/19 06:49:24;;;;;;;9.00;3.40;;;29.90;98.30;;;;;;5001121;28;20500;-54
2022/07/19 06:51:51;;;;;;;3.23;2.93;;;30.10;97.70;;;;;;5001283;28;20449;-53
2022/07/19 06:54:18;;;;;;;3.30;2.93;;;30.50;96.80;;;;;;5001122;28;20537;-49
2022/07/19 06:56:45;;;;;;;3.07;2.30;;;30.90;95.50;;;;;;5000889;28;20574;-52
2022/07/19 06:59:13;;;;;;;2.60;2.23;;;31.30;94.40;;;;;;4996701;28;20551;-51
2022/07/19 07:01:40;;;;;;;3.87;2.50;;;31.70;92.80;;;;;;5000844;28;20600;-49
2022/07/19 07:04:07;;;;;;;2.33;2.00;;;33.10;90.80;;;;;;5001445;28;20451;-50
2022/07/19 07:06:34;;;;;;;2.10;1.83;;;34.70;84.10;;;;;;5000179;28;20489;-49
2022/07/19 07:09:02;;;;;;;6.00;2.80;;;35.20;79.10;;;;;;5000284;28;20457;-48
2022/07/19 07:11:30;;;;;;;3.53;2.63;;;35.70;73.80;;;;;;5000699;28;20443;-48
2022/07/19 07:13:57;;;;;;;3.00;2.47;;;35.80;71.10;;;;;;5000611;28;20463;-51
2022/07/19 07:16:25;;;;;;;2.60;2.10;;;36.50;69.90;;;;;;5000315;28;20503;-50
2022/07/19 07:18:52;;;;;;;3.40;2.23;;;37.00;66.60;;;;;;5001398;28;20439;-52
2022/07/19 07:21:19;;;;;;;2.10;1.87;;;38.20;63.30;;;;;;5000868;28;20630;-54
2022/07/19 07:23:46;;;;;;;2.63;2.00;;;40.30;56.60;;;;;;4993651;28;20452;-51
2022/07/19 07:26:14;;;;;;;7.40;2.00;;;41.80;52.80;;;;;;5000939;28;20443;-49
2022/07/19 07:28:41;;;;;;;2.63;2.20;;;42.70;50.40;;;;;;5000920;28;20443;-47
2022/07/19 07:31:09;;;;;;;2.60;2.10;;;44.20;46.50;;;;;;5000751;28;20465;-47
2022/07/19 07:33:36;;;;;;;2.07;1.80;;;45.80;43.20;;;;;;5000361;28;20490;-52
2022/07/19 07:36:03;;;;;;;2.27;2.17;;;47.00;40.90;;;;;;5000654;28;20481;-50
2022/07/19 07:38:31;;;;;;;3.43;2.17;;;47.30;39.40;;;;;;5000459;28;20447;-50
2022/07/19 07:40:58;;;;;;;2.03;1.83;;;46.90;38.20;;;;;;5000649;28;20758;-49
2022/07/19 07:43:45;;;;;;;2.30;2.17;;;47.60;37.30;;;;;;5000304;28;20459;-47
2022/07/19 07:46:12;;;;;;;2.30;2.13;;;47.30;36.60;;;;;;5000386;28;20595;-49
2022/07/19 07:48:39;;;;;;;2.47;1.80;;;46.50;36.80;;;;;;4992883;28;20466;-53
2022/07/19 07:51:07;;;;;;;3.50;1.90;;;46.60;36.60;;;;;;5000627;28;20435;-51
2022/07/19 07:53:54;;;;;;;2.80;2.20;;;46.80;36.00;;;;;;4999144;28;20758;-53
2022/07/19 07:56:22;;;;;;;4.97;1.73;;;47.90;35.30;;;;;;4996253;28;20525;-51
2022/07/19 07:58:49;;;;;;;2.57;2.37;;;47.60;35.50;;;;;;4995039;28;20439;-51
2022/07/19 08:01:16;;;;;;;4.27;2.13;;;48.50;34.90;;;;;;4995562;28;20431;-52
2022/07/19 08:03:43;;;;;;;5.30;2.93;;;49.30;34.00;;;;;;4998697;28;20451;-53
2022/07/19 08:06:11;;;;;;;2.00;1.90;;;49.80;33.60;;;;;;4999456;28;20442;-52
2022/07/19 08:08:39;;;;;;;5.87;3.00;;;48.50;33.70;;;;;;4999935;28;20454;-55
2022/07/19 08:11:06;;;;;;;2.37;2.00;;;48.20;33.20;;;;;;5000320;28;20514;-51
2022/07/19 08:13:33;;;;;;;5.50;2.40;;;46.60;33.40;;;;;;5000342;28;20455;-54
2022/07/19 08:16:00;;;;;;;2.87;2.50;;;47.40;33.30;;;;;;4999693;28;20487;-54
2022/07/19 08:18:28;;;;;;;2.70;1.80;;;48.10;33.30;;;;;;5002419;28;20477;-51
2022/07/19 08:21:03;;;;;;;2.37;2.27;;;48.60;32.10;;;;;;5004354;28;20431;-52
2022/07/19 08:23:30;;;;;;;2.40;1.90;;;47.20;32.80;;;;;;5004051;28;20490;-53
2022/07/19 08:25:58;;;;;;;4.40;2.63;;;47.20;32.80;;;;;;5003562;28;20443;-49
2022/07/19 08:28:25;;;;;;;7.03;3.33;;;48.20;32.70;;;;;;5002617;28;20463;-50
2022/07/19 08:30:53;;;;;;;2.40;2.20;;;48.90;32.30;;;;;;5002252;28;20841;-49
2022/07/19 08:33:41;;;;;;;2.70;2.50;;;49.90;31.50;;;;;;5002545;28;20461;-50
2022/07/19 08:36:09;;;;;;;1.80;1.70;;;44.30;34.10;;;;;;5003579;28;20479;-50
2022/07/19 08:38:38;;;;;;;2.47;1.87;;;44.60;34.50;;;;;;5003654;28;20789;-50
2022/07/19 08:41:07;;;;;;;1.73;1.63;;;43.80;35.00;;;;;;4986495;28;20443;-51
2022/07/19 08:43:34;;;;;;;1.70;1.60;;;45.00;34.00;;;;;;5003298;28;20479;-47
2022/07/19 08:46:03;;;;;;;6.60;2.43;;;46.10;32.80;;;;;;5003512;28;20446;-48
2022/07/19 08:48:35;;;;;;;2.10;1.90;;;46.40;32.30;;;;;;5003634;28;20447;-45
2022/07/19 08:51:13;;;;;;;3.10;2.70;;;47.20;31.40;;;;;;5003528;28;20479;-50
2022/07/19 08:53:40;;;;;;;2.17;1.90;;;46.40;32.20;;;;;;5003247;28;20479;-49
2022/07/19 08:58:54;;;;;;;3.80;1.60;;;42.80;33.90;;;;;;5005609;28;20755;-47
2022/07/19 09:01:22;;;;;;;2.03;1.83;;;42.70;34.80;;;;;;5003347;28;20444;-50
2022/07/19 09:04:11;;;;;;;2.83;2.63;;;42.60;34.20;;;;;;5003081;28;20459;-47
2022/07/19 09:06:44;;;;;;;1.73;1.60;;;42.80;34.80;;;;;;5003191;28;20511;-48
2022/07/19 09:09:13;;;;;;;6.10;2.33;;;45.20;33.40;;;;;;5003210;28;20489;-46
2022/07/19 09:11:50;;;;;;;2.80;2.10;;;47.20;32.20;;;;;;5002918;28;20701;-48
2022/07/19 09:14:30;;;;;;;3.20;2.43;;;46.90;31.60;;;;;;5003290;28;20461;-48
2022/07/19 09:17:01;;;;;;;2.33;1.90;;;47.70;31.50;;;;;;4996768;28;20474;-50
2022/07/19 09:19:33;;;;;;;2.90;2.37;;;47.20;31.80;;;;;;5002770;28;20443;-46
2022/07/19 09:22:07;;;;;;;2.63;2.43;;;47.60;30.90;;;;;;5002987;28;20439;-49
2022/07/19 09:24:37;;;;;;;3.03;1.80;;;46.00;31.30;;;;;;5002357;28;20505;-48
2022/07/19 09:27:19;;;;;;;6.70;2.33;;;42.80;33.90;;;;;;5003224;28;20611;-47
2022/07/19 09:29:52;;;;;;;2.40;2.20;;;41.80;34.90;;;;;;5002162;28;20443;-51
2022/07/19 09:32:21;;;;;;;2.90;2.00;;;40.80;36.00;;;;;;5002645;28;20438;-51
2022/07/19 09:34:50;;;;;;;2.10;2.00;;;40.60;36.20;;;;;;4998337;28;20494;-46
2022/07/19 09:37:22;;;;;;;2.53;2.10;;;42.00;35.00;;;;;;5002837;28;20479;-49
2022/07/19 09:39:52;;;;;;;5.87;2.40;;;42.40;35.00;;;;;;4998334;28;20471;-45
2022/07/19 09:42:22;;;;;;;2.67;2.47;;;39.70;36.60;;;;;;5003066;28;20661;-47
2022/07/19 09:45:02;;;;;;;2.47;2.27;;;38.20;38.40;;;;;;4996999;28;20454;-50
2022/07/19 09:47:40;;;;;;;4.23;2.53;;;37.00;39.70;;;;;;5000464;28;20443;-49
2022/07/19 09:50:12;;;;;;;3.00;2.63;;;36.30;40.40;;;;;;5002846;28;20494;-49
2022/07/19 09:52:41;;;;;;;2.17;1.97;;;35.60;41.00;;;;;;5003103;28;20474;-48
2022/07/19 09:55:14;;;;;;;2.57;1.90;;;35.10;41.80;;;;;;5002271;28;20435;-50
2022/07/19 09:57:45;;;;;;;5.57;2.37;;;34.60;41.50;;;;;;5002175;28;20486;-46
2022/07/19 10:00:15;;;;;;;2.10;1.83;;;34.20;42.30;;;;;;5002416;28;20432;-50
2022/07/19 10:02:47;;;;;;;3.70;2.13;;;33.80;43.20;;;;;;5002207;28;20629;-50
2022/07/19 10:05:15;;;;;;;2.23;2.13;;;33.50;43.40;;;;;;5001755;28;20781;-49
2022/07/19 10:07:43;;;;;;;2.77;2.43;;;33.40;44.00;;;;;;5002362;28;20466;-48
2022/07/19 10:10:13;;;;;;;4.63;2.40;;;33.40;44.20;;;;;;5002470;28;20443;-48
2022/07/19 10:12:43;;;;;;;4.43;2.23;;;33.30;44.40;;;;;;5002249;28;20506;-48
2022/07/19 10:15:13;;;;;;;2.57;2.00;;;33.30;45.30;;;;;;5002752;28;20439;-49
2022/07/19 10:18:10;;;;;;;2.93;2.30;;;33.20;45.00;;;;;;5003264;28;20859;-47
2022/07/19 10:20:42;;;;;;;2.67;2.10;;;33.00;45.10;;;;;;5002263;28;20451;-52
2022/07/19 10:23:09;;;;;;;2.13;1.93;;;32.30;45.50;;;;;;5002426;28;20455;-48
2022/07/19 10:25:47;;;;;;;2.47;2.27;;;32.00;46.70;;;;;;5002730;28;20435;-48
2022/07/19 10:28:36;;;;;;;1.80;1.70;;;31.90;47.10;;;;;;5002649;28;20463;-51
2022/07/19 10:31:26;;;;;;;3.20;2.50;;;32.10;46.80;;;;;;4999097;28;20463;-51
2022/07/19 10:34:06;;;;;;;3.00;2.33;;;32.20;47.20;;;;;;5002296;28;20506;-50
2022/07/19 10:36:38;;;;;;;12.93;2.73;;;32.40;46.60;;;;;;5001114;28;20514;-50
2022/07/19 10:39:33;;;;;;;4.40;2.57;;;32.30;46.30;;;;;;5001724;28;20435;-48
2022/07/19 10:42:22;;;;;;;2.40;1.97;;;32.10;46.40;;;;;;5000841;28;20505;-50
2022/07/19 10:44:54;;;;;;;2.97;2.40;;;32.20;46.50;;;;;;4995704;28;20765;-49
2022/07/19 10:47:39;;;;;;;4.53;2.13;;;32.30;46.40;;;;;;4997771;28;20431;-50
2022/07/19 10:50:14;;;;;;;2.60;1.70;;;32.60;47.50;;;;;;5001467;28;20432;-48
2022/07/19 10:52:42;;;;;;;2.53;1.90;;;32.60;46.30;;;;;;5001593;28;20459;-50
2022/07/19 10:55:25;;;;;;;2.73;2.20;;;32.60;45.70;;;;;;5001543;28;20427;-51
2022/07/19 10:58:07;;;;;;;2.57;2.13;;;32.60;45.50;;;;;;4993810;28;20965;-49
2022/07/19 11:00:44;;;;;;;2.40;1.63;;;32.60;45.30;;;;;;5001274;28;20431;-50
2022/07/19 11:03:20;;;;;;;3.00;2.60;;;32.40;45.80;;;;;;5001065;28;20728;-53
2022/07/19 11:05:50;;;;;;;1.93;1.73;;;32.50;46.70;;;;;;4999999;28;20427;-54
2022/07/19 11:08:30;;;;;;;3.03;2.30;;;32.60;46.50;;;;;;5000790;28;20431;-50
2022/07/19 11:11:05;;;;;;;2.17;1.70;;;32.80;46.20;;;;;;5000037;28;20435;-49
2022/07/19 11:13:35;;;;;;;2.50;2.03;;;32.80;45.70;;;;;;5000316;28;20546;-47
2022/07/19 11:16:03;;;;;;;2.30;1.63;;;32.70;45.40;;;;;;5000865;28;20443;-49
2022/07/19 11:18:31;;;;;;;3.50;2.03;;;32.60;45.80;;;;;;5000306;28;20471;-50
2022/07/19 11:21:04;;;;;;;3.67;2.40;;;32.40;45.10;;;;;;4995023;28;20449;-51
2022/07/19 11:23:34;;;;;;;1.70;1.60;;;32.20;45.60;;;;;;4998425;28;20470;-51
2022/07/19 11:26:16;;;;;;;2.13;1.87;;;32.30;46.30;;;;;;5001227;28;20434;-51
2022/07/19 11:28:45;;;;;;;8.70;2.40;;;32.40;46.30;;;;;;5000538;28;20436;-50
2022/07/19 11:31:24;;;;;;;4.20;1.97;;;32.60;46.30;;;;;;4996834;28;20775;-49
2022/07/19 11:33:56;;;;;;;2.07;1.87;;;32.80;45.70;;;;;;4994758;28;20462;-47
2022/07/19 11:36:26;;;;;;;4.90;1.93;;;33.00;45.20;;;;;;5000480;28;20431;-49
2022/07/19 11:38:56;;;;;;;1.87;1.77;;;33.20;43.90;;;;;;5000525;28;20439;-50
2022/07/19 11:41:27;;;;;;;2.67;2.47;;;33.10;44.90;;;;;;4997049;28;20432;-48
2022/07/19 11:43:58;;;;;;;2.70;1.83;;;33.20;45.50;;;;;;4993124;28;20471;-48
2022/07/19 11:46:28;;;;;;;1.87;1.57;;;33.10;44.60;;;;;;4999456;28;20507;-53
2022/07/19 11:48:57;;;;;;;3.00;1.70;;;33.10;44.60;;;;;;4998251;28;20593;-52
2022/07/19 11:51:25;;;;;;;5.10;2.13;;;33.00;44.60;;;;;;5004771;28;20505;-52
2022/07/19 11:53:54;;;;;;;2.10;1.87;;;32.60;45.50;;;;;;5006283;28;20469;-51
2022/07/19 11:56:23;;;;;;;1.53;1.43;;;32.50;45.60;;;;;;4999996;28;20626;-50
2022/07/19 11:58:53;;;;;;;6.40;1.90;;;32.40;45.30;;;;;;5000136;28;20446;-54
2022/07/19 12:01:35;;;;;;;2.07;1.90;;;32.50;45.60;;;;;;5000022;28;20432;-53
2022/07/19 12:04:08;;;;;;;2.30;1.90;;;32.60;46.00;;;;;;4999851;28;20446;-52
2022/07/19 12:06:43;;;;;;;3.60;2.00;;;32.80;46.00;;;;;;4999705;28;20761;-51
2022/07/19 12:09:16;;;;;;;4.23;1.70;;;33.10;45.90;;;;;;4999953;28;20427;-53
2022/07/19 12:11:49;;;;;;;2.33;2.00;;;33.20;45.20;;;;;;4999896;28;20471;-46
2022/07/19 12:14:33;;;;;;;3.13;2.40;;;33.30;45.30;;;;;;4999907;28;20516;-52
2022/07/19 12:17:21;;;;;;;2.90;2.10;;;33.30;45.10;;;;;;4993485;28;20558;-55
2022/07/19 12:19:52;;;;;;;1.70;1.60;;;33.30;44.70;;;;;;4997961;28;20539;-51
2022/07/19 12:22:37;;;;;;;2.40;1.80;;;33.20;44.30;;;;;;4999567;28;20462;-49
2022/07/19 12:25:07;;;;;;;5.73;1.90;;;33.10;44.30;;;;;;4999301;28;20828;-52
2022/07/19 12:27:36;;;;;;;2.13;1.97;;;33.00;44.50;;;;;;4999724;28;20438;-53
2022/07/19 12:30:05;;;;;;;5.27;1.80;;;32.80;45.10;;;;;;5000137;28;20479;-47
2022/07/19 12:32:38;;;;;;;3.00;1.60;;;32.80;44.80;;;;;;5012097;28;20438;-51
2022/07/19 12:35:11;;;;;;;1.80;1.30;;;32.60;44.80;;;;;;4999876;28;20611;-51
2022/07/19 12:37:41;;;;;;;2.07;1.97;;;32.40;45.10;;;;;;4999544;28;20490;-54
2022/07/19 12:40:18;;;;;;;1.50;1.40;;;32.30;45.90;;;;;;4998662;28;20474;-48
2022/07/19 12:42:50;;;;;;;1.73;1.63;;;32.30;45.60;;;;;;5003994;28;20446;-48
2022/07/19 12:45:22;;;;;;;1.50;1.40;;;32.30;46.00;;;;;;5001979;28;20432;-54
2022/07/19 12:47:51;;;;;;;2.30;1.80;;;32.50;45.40;;;;;;4994470;28;20434;-52
2022/07/19 12:50:21;;;;;;;2.53;2.33;;;32.50;45.60;;;;;;5000066;28;20444;-53
2022/07/19 12:52:48;;;;;;;2.70;2.50;;;32.60;45.10;;;;;;4992059;28;20517;-51
2022/07/19 12:55:16;;;;;;;2.30;1.63;;;32.60;45.20;;;;;;4999881;28;20435;-51
2022/07/19 12:57:47;;;;;;;4.33;2.23;;;32.50;45.20;;;;;;4999715;28;20482;-52
2022/07/19 13:00:16;;;;;;;6.47;2.20;;;32.60;45.70;;;;;;4999876;28;20435;-50
2022/07/19 13:02:45;;;;;;;3.33;2.13;;;32.70;45.00;;;;;;4997777;28;20570;-49
2022/07/19 13:05:13;;;;;;;2.87;1.90;;;32.70;44.80;;;;;;5000383;28;20435;-52